x

West Lake Ontario - Grimsby (45139) Wave Buoy

11:00pm - Mon 25th Sep 2017 All times are CDT. -5 hours from GMT.

  • Sig Wave height 0.3ft
  • Peak Period 3s
  • Wind
    4mph, 4mph gusts
  • Sea Temp 74°f
  • Air Temp 74°f
  • Sea Pressure 1015.4mb
  • West Lake Ontario - Grimsby
  • West Lake Ontario - Grimsby

More Historic Weather Station data

Upgrade to MSW Pro to gain access to the past 30 days of data for over 8000 Wavebouys and Weather Stations around the globe.

Join

Comparision Forecast

View Surf forecast
   
Mon 09/25 11:00pm 0.3ft 3s 4 4 mph 1015.4mb 74f 74f
10:00pm 0.3ft 2s 2 2 mph 1015.3mb 74f 74f
9:00pm 0.3ft 2s 7 7 mph 1015.4mb 74f 74f
8:00pm 0.3ft 2s 2 4 mph 1015.5mb 74f 74f
7:00pm 0.3ft 2s 4 4 mph 1015.6mb 74f 75f
6:00pm 0.3ft 2s 7 9 mph 1015.5mb 75f 75f
5:00pm 0.3ft 2s 4 7 mph 1015.8mb 75f 75f
4:00pm 0.7ft 2s 4 7 mph 1016mb 75f 75f
3:00pm 0.7ft 2s 4 7 mph 1016.4mb 75f 76f
2:00pm 0.3ft 2s 9 11 mph 1016.5mb 75f 76f
1:00pm 0.3ft 2s 11 13 mph 1017.1mb 75f 76f
12:00pm  -  4s 9 11 mph 1017.6mb 75f 76f
11:00am  -  4s 7 9 mph 1018.3mb 75f 75f
10:00am  -  4s 4 4 mph 1018.6mb 74f 74f
9:00am  -  3s 4 4 mph 1019mb 74f 74f
8:00am  -  4s 2 4 mph 1019mb 73f 73f
7:00am  -  2s 2 2 mph 1018.7mb 73f 73f
6:00am  -  3s 2 2 mph 1018.6mb 73f 73f
5:00am  -  2s 2 2 mph 1018.2mb 73f 73f
4:00am  -  5s 2 2 mph 1017.9mb 73f 73f
3:00am  -  2s 2 2 mph 1017.9mb 73f 73f
2:00am  -  2s 2 2 mph 1017.9mb 73f 74f
1:00am  -  2s 2 2 mph 1018.2mb 73f 74f
12:00am 0.3ft 5s 2 2 mph 1018.3mb 73f 74f
Sun 09/24 11:00pm  -  2s 4 4 mph 1018.4mb 73f 76f
10:00pm  -  2s 2 2 mph 1018.5mb 74f 77f
9:00pm 0.3ft 2s 4 4 mph 1018.6mb 74f 78f
8:00pm 0.3ft 2s 2 4 mph 1018.4mb 74f 79f
7:00pm 0.3ft 2s 4 4 mph 1018.1mb 74f 79f
6:00pm 0.3ft 2s 4 4 mph 1017.9mb 75f 80f
5:00pm 0.3ft 5s 7 7 mph 1017.9mb 76f 80f
4:00pm 0.3ft 3s 4 7 mph 1018.2mb 77f 82f
3:00pm 0.3ft 2s 4 4 mph 1018.5mb 78f 82f
2:00pm 0.3ft 4s 2 2 mph 1019mb 77f 82f
1:00pm 0.3ft 3s 2 2 mph 1019.5mb 76f 81f
12:00pm 0.3ft 2s  -  0 mph 1020mb 76f 79f
11:00am 0.3ft 3s 2 2 mph 1020.7mb 75f 78f
10:00am  -  4s  -  2 mph 1020.9mb 74f 77f
9:00am  -  3s 4 4 mph 1021.2mb 73f 73f
8:00am  -  3s 2 2 mph 1021.3mb 72f 72f
7:00am 0.3ft 5s 2 2 mph 1021mb 72f 72f
6:00am  -  3s 4 4 mph 1020.8mb 72f 71f
5:00am  -  3s  -  2 mph 1020.3mb 72f 71f
4:00am  -  3s  -  0 mph 1020mb 72f 72f
3:00am  -  2s 4 4 mph 1019.6mb 72f 72f
2:00am  -  2s 2 4 mph 1019.3mb 72f 73f
1:00am  -  3s 2 4 mph 1019.2mb 72f 73f
12:00am  -  3s 4 7 mph 1018.9mb 72f 73f
Sat 09/23 11:00pm  -  4s 7 7 mph 1018.8mb 72f 73f
10:00pm 0.3ft 3s 9 9 mph 1018.5mb 72f 74f
9:00pm 0.3ft 2s 7 9 mph 1018.4mb 72f 74f
8:00pm 0.3ft 2s 9 9 mph 1018.3mb 72f 75f
7:00pm 0.3ft 2s 9 11 mph 1018.1mb 73f 76f
6:00pm 0.3ft 3s 9 11 mph 1018mb 74f 78f
5:00pm 0.3ft 3s 9 9 mph 1017.8mb 74f 80f
4:00pm 0.3ft 5s 4 9 mph 1017.9mb 75f 83f
3:00pm 0.3ft 5s 4 4 mph 1018mb 75f 81f
2:00pm 0.3ft 5s 7 7 mph 1018.5mb 74f 80f
1:00pm 0.3ft 5s 4 7 mph 1019.2mb 74f 78f
12:00pm 0.3ft 4s 4 4 mph 1019.7mb 74f 77f
11:00am 0.3ft 5s 2 2 mph 1020.1mb 73f 76f
10:00am 0.3ft 4s 2 4 mph 1020mb 73f 74f
9:00am 0.3ft 4s 2 2 mph 1020.4mb 72f 73f
8:00am 0.3ft 4s 2 4 mph 1020.5mb 71f 71f
7:00am 0.3ft 4s 4 4 mph 1020mb 71f 71f
6:00am 0.3ft 3s 4 4 mph 1019.8mb 71f 69f
5:00am 0.3ft 4s 7 9 mph 1019.1mb 71f 69f
4:00am 0.3ft 4s 7 9 mph 1018.3mb 71f 70f
3:00am 0.3ft 4s 2 4 mph 1017.8mb 71f 69f
2:00am 0.3ft 4s 4 4 mph 1017.7mb 71f 70f
1:00am 0.7ft 4s 2 4 mph 1018.4mb 71f 70f
12:00am 0.7ft 4s 4 4 mph 1018.5mb 71f 70f
Fri 09/22 11:00pm 0.7ft 4s 4 4 mph 1018.6mb 71f 69f
10:00pm 0.7ft 4s 4 7 mph 1018.9mb 71f 71f
9:00pm 0.7ft 4s  -  2 mph 1018.8mb 72f 71f
8:00pm 0.3ft 4s  -  2 mph 1018.7mb 72f 71f
7:00pm 0.3ft 4s 2 2 mph 1018.6mb 72f 71f
6:00pm 0.3ft 2s 2 2 mph 1019mb 72f 71f
5:00pm 0.3ft 4s 2 2 mph 1018.8mb 73f 73f
4:00pm 0.3ft 3s 4 4 mph 1018.8mb 73f 73f
3:00pm 0.3ft 3s 4 4 mph 1019.1mb 73f 73f
2:00pm 0.3ft 3s 7 7 mph 1019.7mb 73f 72f
1:00pm 0.3ft 3s 7 9 mph 1020.3mb 73f 71f
12:00pm 0.3ft 3s 4 7 mph 1020.7mb 72f 71f
11:00am 0.3ft 3s 4 4 mph 1021mb 72f 71f
10:00am 0.3ft 4s 2 2 mph 1021.2mb 71f 71f
9:00am 0.3ft 4s 4 4 mph 1021.1mb 71f 70f
8:00am 0.3ft 4s  -  mph 1021mb 70f 74f
7:00am 0.3ft 4s 2 4 mph 1021mb 69f 69f
6:00am 0.3ft 4s  -  2 mph 1020.7mb 70f 69f